Time;durP1;ratioP1;P1;durP2;ratioP2;P2;SDS_P1;SDS_P2;PMS_P1;PMS_P2;Temp;Humidity;BMP_temperature;BMP_pressure;BME280_temperature;BME280_humidity;BME280_pressure;Samples;Min_cycle;Max_cycle;Signal;HPM_P1;HPM_P2
2023/11/08 00:00:13;;;;;;;9.90;3.80;;;;;;;8.62;70.30;99773.95;79835;1295;3011922;-70
2023/11/08 00:02:41;;;;;;;9.40;4.40;;;;;;;8.73;69.60;99770.45;78455;1297;3028514;-70
2023/11/08 00:05:08;;;;;;;10.80;4.20;;;;;;;8.66;69.84;99771.14;79760;1295;3013639;-71
2023/11/08 00:07:34;;;;;;;9.40;4.20;;;;;;;8.68;69.73;99769.81;79731;1297;3011639;-70
2023/11/08 00:10:02;;;;;;;9.20;4.10;;;;;;;8.70;69.66;99769.59;78541;1296;3025823;-71
2023/11/08 00:12:29;;;;;;;9.20;4.60;;;;;;;8.63;69.94;99767.78;79881;1298;3018509;-71
2023/11/08 00:14:57;;;;;;;9.30;3.60;;;;;;;8.66;69.60;99764.69;79684;1298;3013557;-70
2023/11/08 00:17:25;;;;;;;10.90;3.80;;;;;;;8.70;69.65;99765.21;78724;1295;3068716;-71
2023/11/08 00:19:54;;;;;;;9.10;4.00;;;;;;;8.63;69.72;99760.48;79686;1292;3013700;-71
2023/11/08 00:22:23;;;;;;;9.50;4.10;;;;;;;8.68;69.56;99752.73;79315;1298;3011686;-70
2023/11/08 00:24:50;;;;;;;8.90;4.00;;;;;;;8.71;69.43;99751.33;79952;1293;3013327;-68
2023/11/08 00:27:16;;;;;;;11.50;4.30;;;;;;;8.73;69.32;99747.75;79746;1292;3013346;-71
2023/11/08 00:29:46;;;;;;;9.70;4.00;;;;;;;8.70;69.35;99743.21;78511;1298;3028692;-70
2023/11/08 00:32:13;;;;;;;8.40;4.30;;;;;;;8.63;69.81;99732.38;79700;1298;3011597;-70
2023/11/08 00:34:39;;;;;;;7.70;4.00;;;;;;;8.60;70.09;99734.27;79585;1295;3013137;-69
2023/11/08 00:37:09;;;;;;;9.70;4.40;;;;;;;8.58;70.21;99729.13;78606;1292;3057058;-71
2023/11/08 00:39:35;;;;;;;8.10;3.50;;;;;;;8.48;70.73;99727.83;79758;1298;3011880;-69
2023/11/08 00:42:02;;;;;;;8.60;3.90;;;;;;;8.50;70.78;99729.66;79876;1293;3011585;-70
2023/11/08 00:44:31;;;;;;;10.10;3.60;;;;;;;8.51;70.87;99722.27;78582;1298;3051852;-71
2023/11/08 00:46:57;;;;;;;7.40;3.70;;;;;;;8.49;70.94;99725.34;79964;1292;3019144;-70
2023/11/08 00:49:25;;;;;;;8.90;4.10;;;;;;;8.50;70.82;99720.94;79776;1295;3012309;-70
2023/11/08 00:51:52;;;;;;;9.60;3.80;;;;;;;8.44;71.10;99717.03;78290;1294;3025854;-74
2023/11/08 00:54:19;;;;;;;8.70;4.10;;;;;;;8.42;71.43;99713.27;79889;1297;3013099;-72
2023/11/08 00:56:46;;;;;;;12.30;5.20;;;;;;;8.41;71.74;99709.83;79858;1296;3013384;-71
2023/11/08 00:59:14;;;;;;;10.30;4.50;;;;;;;8.41;72.30;99711.71;78486;1300;3051795;-71
2023/11/08 01:01:40;;;;;;;8.30;4.20;;;;;;;8.46;72.07;99710.83;79856;1292;3013378;-70
2023/11/08 01:04:10;;;;;;;9.90;4.20;;;;;;;8.44;72.45;99709.00;79685;1292;3011697;-71
2023/11/08 01:06:39;;;;;;;10.50;4.10;;;;;;;8.36;72.87;99709.88;78502;1292;3055736;-73
2023/11/08 01:09:07;;;;;;;5.20;2.70;;;;;;;8.30;73.22;99711.02;79783;1292;3014823;-71
2023/11/08 01:11:34;;;;;;;8.30;3.80;;;;;;;8.89;72.34;99712.55;79995;1292;3011450;-71
2023/11/08 01:14:02;;;;;;;9.20;3.70;;;;;;;9.45;70.06;99709.41;78491;1298;3054611;-74
2023/11/08 01:16:29;;;;;;;7.50;3.30;;;;;;;9.60;69.69;99707.05;79811;1295;3011914;-73
2023/11/08 01:18:55;;;;;;;9.60;4.30;;;;;;;9.34;69.99;99707.01;79577;1295;3011863;-68
2023/11/08 01:21:23;;;;;;;7.70;3.60;;;;;;;9.10;70.16;99705.93;78739;1292;3055696;-72
2023/11/08 01:23:51;;;;;;;11.10;4.60;;;;;;;8.92;71.05;99700.55;79594;1294;3013198;-73
2023/11/08 01:26:17;;;;;;;6.90;3.50;;;;;;;8.79;71.68;99697.54;79452;1298;3011525;-74
2023/11/08 01:28:45;;;;;;;8.50;3.90;;;;;;;8.57;72.31;99699.11;78621;1297;3051574;-73
2023/11/08 01:31:12;;;;;;;9.70;3.90;;;;;;;8.33;72.87;99698.14;79745;1298;3013190;-70
2023/11/08 01:33:38;;;;;;;8.80;4.00;;;;;;;8.18;74.10;99694.30;79819;1298;3013190;-73
2023/11/08 01:36:06;;;;;;;9.50;4.20;;;;;;;8.09;74.81;99692.30;78621;1292;3025881;-75
2023/11/08 01:38:32;;;;;;;8.40;4.70;;;;;;;8.00;75.42;99694.61;79603;1298;3012964;-72
2023/11/08 01:40:59;;;;;;;9.70;4.20;;;;;;;7.87;75.92;99697.50;79662;1292;3013713;-71
2023/11/08 01:43:27;;;;;;;8.60;4.50;;;;;;;7.76;76.37;99696.41;78629;1292;3026471;-69
2023/11/08 01:46:11;;;;;;;9.90;3.30;;;;;;;7.65;77.11;99697.94;79875;1297;3013221;-72
2023/11/08 01:48:39;;;;;;;7.40;3.60;;;;;;;8.13;75.97;99694.19;78653;1292;3051358;-70
2023/11/08 01:51:06;;;;;;;8.10;3.90;;;;;;;8.61;73.88;99691.27;79719;1298;3013241;-69
2023/11/08 01:53:35;;;;;;;9.20;3.80;;;;;;;8.64;73.44;99684.28;79784;1297;3011565;-72
2023/11/08 01:56:03;;;;;;;8.80;3.80;;;;;;;8.48;73.34;99684.55;78570;1297;3048941;-69
2023/11/08 01:58:32;;;;;;;7.70;4.30;;;;;;;8.22;73.86;99677.36;80065;1296;3012745;-70
2023/11/08 02:00:58;;;;;;;7.10;4.00;;;;;;;8.18;73.93;99680.17;79624;1298;3011532;-71
2023/11/08 02:03:27;;;;;;;7.90;3.80;;;;;;;8.09;73.88;99670.47;78397;1293;3053113;-71
2023/11/08 02:05:54;;;;;;;9.30;4.20;;;;;;;8.03;73.85;99669.37;79860;1297;3013753;-70
2023/11/08 02:08:21;;;;;;;10.40;4.10;;;;;;;7.87;74.59;99667.98;79822;1292;3011997;-70
2023/11/08 02:10:48;;;;;;;9.70;4.50;;;;;;;7.81;74.71;99659.19;78591;1297;3048727;-73
2023/11/08 02:13:15;;;;;;;7.50;4.10;;;;;;;7.69;75.06;99648.59;79721;1297;3018130;-70
2023/11/08 02:15:41;;;;;;;10.90;4.50;;;;;;;7.61;75.47;99646.34;79539;1292;3012756;-69
2023/11/08 02:18:10;;;;;;;9.80;4.40;;;;;;;7.55;75.56;99649.55;78563;1292;3026179;-72
2023/11/08 02:20:36;;;;;;;10.20;5.00;;;;;;;7.49;75.78;99645.52;79821;1292;3012938;-70
2023/11/08 02:23:03;;;;;;;10.10;4.70;;;;;;;7.42;76.03;99649.30;79832;1292;3011492;-69
2023/11/08 02:25:31;;;;;;;5.90;4.00;;;;;;;7.43;76.17;99661.44;78422;1298;3049618;-68
2023/11/08 02:27:58;;;;;;;8.70;4.80;;;;;;;7.96;75.06;99663.75;79812;1295;3013095;-69
2023/11/08 02:30:24;;;;;;;10.20;4.80;;;;;;;8.36;73.10;99667.81;79779;1292;3014077;-68
2023/11/08 02:32:52;;;;;;;15.20;5.10;;;;;;;8.51;72.03;99668.35;78594;1292;3026587;-72
2023/11/08 02:35:18;;;;;;;12.90;5.00;;;;;;;8.31;72.20;99667.73;79776;1292;3018064;-71
2023/11/08 02:37:46;;;;;;;12.00;5.50;;;;;;;8.24;72.72;99669.44;79837;1295;3011764;-70
2023/11/08 02:40:14;;;;;;;10.00;5.50;;;;;;;8.00;73.51;99666.89;78576;1298;3048571;-69
2023/11/08 02:42:44;;;;;;;14.30;5.80;;;;;;;7.83;74.32;99660.16;79865;1295;3013032;-72
2023/11/08 02:45:13;;;;;;;11.40;6.30;;;;;;;7.65;75.06;99656.80;79186;1294;3013208;-72
2023/11/08 02:47:40;;;;;;;12.50;5.50;;;;;;;7.57;75.36;99661.50;79828;1293;3013046;-69
2023/11/08 02:50:07;;;;;;;12.60;5.50;;;;;;;7.50;75.42;99654.34;79737;1296;3011609;-73
2023/11/08 02:52:35;;;;;;;12.20;6.10;;;;;;;7.44;75.96;99655.48;78577;1294;3048233;-70
2023/11/08 02:55:03;;;;;;;11.80;6.40;;;;;;;7.31;76.63;99655.88;79762;1296;3013676;-69
2023/11/08 02:57:30;;;;;;;15.30;6.70;;;;;;;7.30;76.87;99655.08;79793;1294;3013350;-70
2023/11/08 02:59:58;;;;;;;9.10;5.00;;;;;;;7.27;77.14;99649.10;78643;1297;3052293;-69
2023/11/08 03:02:24;;;;;;;10.40;5.30;;;;;;;7.63;76.38;99653.76;79752;1297;3020792;-69
2023/11/08 03:04:51;;;;;;;8.20;5.00;;;;;;;7.97;74.87;99653.26;79737;1293;3013690;-69
2023/11/08 03:07:19;;;;;;;8.90;4.90;;;;;;;8.26;73.64;99650.85;78518;1295;3026432;-69
2023/11/08 03:09:45;;;;;;;12.90;5.20;;;;;;;8.11;73.74;99653.84;79713;1298;3018795;-72
2023/11/08 03:12:11;;;;;;;11.90;5.10;;;;;;;8.01;73.77;99652.39;79884;1298;3011544;-69
2023/11/08 03:14:39;;;;;;;11.20;5.10;;;;;;;7.85;74.54;99656.80;78912;1292;3026665;-70
2023/11/08 03:17:06;;;;;;;14.80;6.30;;;;;;;7.70;75.21;99649.43;79847;1292;3013518;-71
2023/11/08 03:19:33;;;;;;;16.00;5.90;;;;;;;7.58;75.62;99651.19;79718;1293;3011784;-70
2023/11/08 03:22:02;;;;;;;12.10;5.50;;;;;;;7.47;76.39;99650.82;78513;1292;3049346;-70
2023/11/08 03:24:29;;;;;;;10.50;5.00;;;;;;;7.42;76.51;99649.81;79873;1293;3013224;-72
2023/11/08 03:26:55;;;;;;;14.90;5.60;;;;;;;7.30;77.37;99656.80;79964;1292;3011791;-70
2023/11/08 03:29:23;;;;;;;13.50;5.60;;;;;;;7.28;77.62;99659.83;78875;1296;3051451;-72
2023/11/08 03:31:49;;;;;;;9.80;4.40;;;;;;;7.19;78.13;99662.30;80126;1292;3013010;-69
2023/11/08 03:34:16;;;;;;;12.10;4.90;;;;;;;7.61;77.22;99662.02;79978;1292;3011391;-74
2023/11/08 03:36:44;;;;;;;9.60;4.10;;;;;;;8.14;74.78;99664.66;78652;1296;3026626;-71
2023/11/08 03:39:11;;;;;;;11.90;4.80;;;;;;;8.15;74.12;99659.54;79740;1298;3018411;-70
2023/11/08 03:41:37;;;;;;;12.90;5.40;;;;;;;8.08;74.14;99662.33;79819;1297;3011713;-69
2023/11/08 03:44:05;;;;;;;9.90;4.80;;;;;;;7.99;73.93;99666.59;78466;1297;3025953;-70
2023/11/08 03:46:32;;;;;;;10.20;5.00;;;;;;;7.93;74.05;99668.09;80173;1292;3013602;-69
2023/11/08 03:48:59;;;;;;;12.20;5.20;;;;;;;7.72;74.96;99669.04;80024;1292;3011926;-71
2023/11/08 03:51:27;;;;;;;11.30;5.10;;;;;;;7.56;75.79;99670.79;78785;1292;3026636;-68
2023/11/08 03:53:53;;;;;;;11.60;5.80;;;;;;;7.45;76.68;99675.66;79752;1292;3018758;-69
2023/11/08 03:56:20;;;;;;;14.30;5.80;;;;;;;7.39;77.06;99673.30;79630;1296;3011802;-75
2023/11/08 03:58:48;;;;;;;17.20;5.60;;;;;;;7.33;77.29;99667.63;78535;1297;3025237;-73
2023/11/08 04:01:15;;;;;;;14.20;5.80;;;;;;;7.29;77.81;99665.05;79919;1292;3013526;-72
2023/11/08 04:03:41;;;;;;;12.00;4.90;;;;;;;7.21;78.44;99660.48;79776;1298;3011451;-74
2023/11/08 04:06:09;;;;;;;16.60;5.40;;;;;;;7.60;77.15;99661.04;78593;1292;3026848;-74
2023/11/08 04:08:36;;;;;;;14.30;6.10;;;;;;;7.88;75.85;99660.65;79806;1293;3011644;-69
2023/11/08 04:11:03;;;;;;;15.40;5.30;;;;;;;7.93;75.67;99652.92;79985;1292;3011740;-70
2023/11/08 04:13:31;;;;;;;12.60;6.10;;;;;;;7.93;75.67;99655.52;78593;1292;3052489;-72
2023/11/08 04:15:57;;;;;;;16.00;6.40;;;;;;;7.77;76.22;99662.52;79849;1297;3012828;-71
2023/11/08 04:18:24;;;;;;;14.40;5.30;;;;;;;7.53;77.03;99659.09;79707;1292;3011606;-69
2023/11/08 04:20:52;;;;;;;13.10;5.10;;;;;;;7.54;76.50;99659.20;78663;1297;3027943;-72
2023/11/08 04:23:18;;;;;;;14.20;5.80;;;;;;;7.50;76.35;99663.07;79760;1297;3013430;-71
2023/11/08 04:25:49;;;;;;;13.70;5.30;;;;;;;7.48;76.13;99663.83;79918;1292;3011522;-69
2023/11/08 04:28:17;;;;;;;14.30;5.70;;;;;;;7.49;76.00;99670.96;78628;1297;3053066;-71
2023/11/08 04:30:45;;;;;;;12.80;4.80;;;;;;;7.50;75.86;99661.82;79671;1293;3018920;-70
2023/11/08 04:33:12;;;;;;;12.70;4.70;;;;;;;7.51;75.93;99669.27;79787;1292;3013229;-69
2023/11/08 04:35:40;;;;;;;11.40;4.40;;;;;;;7.60;75.56;99661.57;78603;1292;3048633;-71
2023/11/08 04:38:07;;;;;;;9.90;4.30;;;;;;;7.61;75.66;99652.80;79747;1298;3012211;-74
2023/11/08 04:40:33;;;;;;;12.40;4.90;;;;;;;8.08;74.36;99655.87;79881;1295;3012943;-74
2023/11/08 04:43:01;;;;;;;13.50;4.40;;;;;;;8.42;72.84;99660.21;78749;1292;3028543;-70
2023/11/08 04:45:28;;;;;;;8.90;4.50;;;;;;;8.48;72.40;99664.27;79886;1298;3013798;-71
2023/11/08 04:47:54;;;;;;;9.70;4.50;;;;;;;8.51;72.49;99650.54;79866;1293;3011580;-70
2023/11/08 04:50:22;;;;;;;10.80;4.10;;;;;;;8.39;72.66;99645.14;78550;1293;3028332;-73
2023/11/08 04:52:49;;;;;;;12.30;5.20;;;;;;;8.18;73.42;99647.03;79800;1293;3019006;-68
2023/11/08 04:55:15;;;;;;;12.10;5.60;;;;;;;8.03;74.36;99650.69;79842;1298;3011701;-70
2023/11/08 04:57:43;;;;;;;10.30;4.90;;;;;;;7.81;75.50;99652.59;78542;1297;3027577;-71
2023/11/08 05:00:10;;;;;;;12.60;5.30;;;;;;;7.69;76.27;99647.38;79779;1297;3011652;-72
2023/11/08 05:02:38;;;;;;;13.10;5.30;;;;;;;7.67;76.49;99654.09;79818;1294;3013723;-71
2023/11/08 05:05:08;;;;;;;13.40;4.80;;;;;;;7.59;77.03;99655.85;78605;1296;3047902;-71
2023/11/08 05:07:36;;;;;;;13.90;5.50;;;;;;;7.55;77.25;99647.68;79874;1297;3012950;-68
2023/11/08 05:10:07;;;;;;;11.90;3.60;;;;;;;7.59;77.25;99643.15;79172;1297;3013688;-69
2023/11/08 05:12:34;;;;;;;12.40;4.50;;;;;;;8.08;75.78;99643.48;79832;1296;3013055;-70
2023/11/08 05:15:06;;;;;;;14.50;5.40;;;;;;;8.49;73.81;99641.03;79254;1298;3013413;-69
2023/11/08 05:17:33;;;;;;;10.40;5.30;;;;;;;8.50;73.50;99645.86;79867;1296;3013606;-70
2023/11/08 05:20:01;;;;;;;10.40;5.00;;;;;;;8.39;73.92;99644.27;79276;1298;3013512;-68
2023/11/08 05:22:28;;;;;;;14.60;5.50;;;;;;;8.23;74.45;99649.77;79965;1292;3013636;-67
2023/11/08 05:24:54;;;;;;;14.20;5.80;;;;;;;8.04;75.38;99647.31;79492;1293;3011586;-68
2023/11/08 05:27:22;;;;;;;11.20;5.20;;;;;;;8.03;75.14;99653.49;78536;1297;3025721;-68
2023/11/08 05:29:48;;;;;;;11.10;5.30;;;;;;;7.88;75.78;99653.14;79896;1298;3018523;-69
2023/11/08 05:32:19;;;;;;;13.70;5.90;;;;;;;7.86;75.77;99651.16;79733;1293;3012161;-68
2023/11/08 05:34:48;;;;;;;11.40;5.30;;;;;;;7.87;75.90;99650.25;78683;1292;3050838;-72
2023/11/08 05:37:17;;;;;;;12.90;5.60;;;;;;;7.89;75.86;99647.36;79921;1292;3013170;-69
2023/11/08 05:39:45;;;;;;;19.00;7.40;;;;;;;7.81;76.26;99643.52;78664;1293;3052333;-70
2023/11/08 05:42:12;;;;;;;19.90;8.80;;;;;;;7.90;75.83;99651.33;79763;1297;3013269;-69
2023/11/08 05:44:42;;;;;;;26.00;9.40;;;;;;;7.86;76.23;99646.11;79737;1298;3013064;-69
2023/11/08 05:47:10;;;;;;;19.70;8.30;;;;;;;8.42;74.17;99645.34;78653;1293;3068594;-67
2023/11/08 05:49:36;;;;;;;29.50;9.70;;;;;;;8.78;72.44;99643.96;79826;1292;3013052;-69
2023/11/08 05:52:03;;;;;;;17.60;6.70;;;;;;;8.90;71.83;99631.29;79885;1292;3011468;-68
2023/11/08 05:54:31;;;;;;;15.90;6.40;;;;;;;8.71;72.03;99629.11;78578;1298;3054759;-68
2023/11/08 05:56:58;;;;;;;10.80;4.80;;;;;;;8.60;72.39;99631.05;79822;1297;3013303;-71
2023/11/08 05:59:25;;;;;;;14.00;5.60;;;;;;;8.48;72.89;99634.08;79793;1298;3011952;-68
2023/11/08 06:01:53;;;;;;;11.40;5.00;;;;;;;8.33;73.16;99627.44;78476;1293;3068033;-69
2023/11/08 06:04:20;;;;;;;19.30;7.10;;;;;;;8.32;73.56;99615.11;80098;1292;3013461;-72
2023/11/08 06:06:48;;;;;;;16.50;6.70;;;;;;;8.26;74.10;99611.02;79891;1298;3011960;-76
2023/11/08 06:09:16;;;;;;;12.30;5.80;;;;;;;8.24;74.45;99605.90;78655;1297;3052486;-68
2023/11/08 06:11:43;;;;;;;21.40;6.70;;;;;;;8.13;74.41;99602.23;79966;1295;3013637;-68
2023/11/08 06:14:10;;;;;;;17.90;7.40;;;;;;;8.16;74.21;99596.02;79952;1296;3013702;-68
2023/11/08 06:16:40;;;;;;;19.90;7.80;;;;;;;8.13;74.57;99596.66;78592;1297;3026093;-69
2023/11/08 06:19:07;;;;;;;22.20;9.70;;;;;;;8.16;74.60;99601.75;79808;1298;3011630;-69
2023/11/08 06:21:33;;;;;;;18.50;7.80;;;;;;;8.10;75.09;99601.85;80222;1297;3013879;-66
2023/11/08 06:24:01;;;;;;;17.60;8.10;;;;;;;8.14;74.57;99598.02;78418;1293;3052048;-67
2023/11/08 06:26:28;;;;;;;16.00;7.10;;;;;;;8.24;74.10;99594.21;80100;1297;3013204;-68
2023/11/08 06:28:54;;;;;;;18.60;7.70;;;;;;;8.28;73.94;99594.89;80088;1297;3011711;-68
2023/11/08 06:31:22;;;;;;;21.50;7.60;;;;;;;8.30;74.16;99593.41;78701;1295;3026672;-68
2023/11/08 06:33:48;;;;;;;12.40;5.50;;;;;;;8.35;73.79;99588.41;79815;1298;3018874;-68
2023/11/08 06:36:16;;;;;;;14.60;6.70;;;;;;;8.37;73.57;99579.81;79924;1292;3011612;-68
2023/11/08 06:38:44;;;;;;;13.90;6.60;;;;;;;8.43;73.31;99579.66;78701;1295;3051382;-69
2023/11/08 06:41:10;;;;;;;16.00;5.60;;;;;;;8.51;72.75;99573.54;79974;1292;3011407;-68
2023/11/08 06:43:37;;;;;;;14.00;6.40;;;;;;;8.60;72.28;99573.24;79993;1298;3013383;-66
2023/11/08 06:46:05;;;;;;;14.40;5.40;;;;;;;8.67;71.03;99561.36;78709;1297;3028373;-67
2023/11/08 06:48:31;;;;;;;8.30;4.40;;;;;;;8.77;70.77;99554.09;79925;1293;3013475;-70
2023/11/08 06:50:58;;;;;;;10.20;4.10;;;;;;;8.90;70.05;99540.47;79903;1293;3013044;-71
2023/11/08 06:53:25;;;;;;;26.60;10.00;;;;;;;9.01;69.32;99537.98;78645;1292;3027467;-69
2023/11/08 06:55:52;;;;;;;15.20;5.70;;;;;;;9.06;69.28;99550.27;79872;1299;3013639;-69
2023/11/08 06:58:18;;;;;;;10.40;5.10;;;;;;;9.16;68.90;99550.12;79797;1292;3013053;-70
2023/11/08 07:00:46;;;;;;;9.20;4.10;;;;;;;9.26;68.61;99552.74;78600;1292;3026452;-71
2023/11/08 07:03:13;;;;;;;7.90;3.50;;;;;;;9.31;68.93;99561.36;79786;1297;3013282;-69
2023/11/08 07:05:39;;;;;;;8.00;4.20;;;;;;;9.36;68.70;99564.41;79748;1297;3011127;-70
2023/11/08 07:08:09;;;;;;;9.70;4.40;;;;;;;9.47;68.72;99578.36;78546;1293;3026362;-76
2023/11/08 07:10:37;;;;;;;11.60;5.60;;;;;;;9.58;68.67;99580.20;79921;1296;3011422;-72
2023/11/08 07:13:05;;;;;;;13.90;5.20;;;;;;;9.59;69.04;99579.11;78535;1298;3025534;-69
2023/11/08 07:15:32;;;;;;;15.10;5.30;;;;;;;9.65;68.90;99575.30;79924;1296;3013761;-69
2023/11/08 07:17:58;;;;;;;11.50;4.10;;;;;;;9.62;69.10;99582.80;80211;1292;3011781;-70
2023/11/08 07:20:26;;;;;;;13.90;4.90;;;;;;;9.68;69.40;99579.84;78636;1297;3026183;-73
2023/11/08 07:22:52;;;;;;;10.30;4.20;;;;;;;9.69;69.81;99575.00;79848;1294;3013354;-70
2023/11/08 07:25:19;;;;;;;8.80;4.20;;;;;;;9.69;69.91;99570.30;79873;1292;3011541;-69
2023/11/08 07:27:47;;;;;;;9.60;4.10;;;;;;;9.77;69.96;99566.57;78522;1298;3025891;-69
2023/11/08 07:30:16;;;;;;;12.20;4.70;;;;;;;9.73;70.55;99559.94;79943;1293;3018181;-71
2023/11/08 07:32:45;;;;;;;11.70;3.80;;;;;;;9.82;70.41;99561.92;79648;1292;3011953;-75
2023/11/08 07:35:12;;;;;;;9.00;4.00;;;;;;;9.90;69.94;99561.31;79941;1298;3013318;-69
2023/11/08 07:37:41;;;;;;;9.30;4.40;;;;;;;10.05;69.66;99555.89;79920;1295;3012037;-69
2023/11/08 07:40:12;;;;;;;10.00;4.40;;;;;;;10.12;69.40;99545.17;78631;1293;3052562;-71
2023/11/08 07:42:39;;;;;;;13.60;5.00;;;;;;;10.25;68.87;99542.30;79986;1294;3012205;-73
2023/11/08 07:45:09;;;;;;;12.50;5.30;;;;;;;10.38;68.80;99535.09;79350;1295;3013281;-72
2023/11/08 07:47:35;;;;;;;11.40;5.20;;;;;;;10.53;68.52;99530.77;79955;1297;3013092;-72
2023/11/08 07:50:05;;;;;;;14.30;5.10;;;;;;;10.63;68.46;99523.48;79717;1293;3013160;-69
2023/11/08 07:52:34;;;;;;;13.00;4.70;;;;;;;10.76;68.17;99519.76;78782;1292;3056147;-72
2023/11/08 07:55:00;;;;;;;11.60;5.30;;;;;;;10.74;67.90;99516.71;79791;1298;3013709;-71
2023/11/08 07:57:27;;;;;;;14.70;5.60;;;;;;;10.81;67.88;99507.71;79829;1296;3011571;-70
2023/11/08 07:59:54;;;;;;;13.50;5.20;;;;;;;10.88;67.86;99512.55;78655;1298;3025231;-71
2023/11/08 08:02:21;;;;;;;11.20;5.40;;;;;;;10.91;67.51;99508.14;80099;1295;3013317;-70
2023/11/08 08:04:48;;;;;;;14.50;5.50;;;;;;;10.97;67.39;99509.88;80030;1295;3012918;-73
2023/11/08 08:07:16;;;;;;;13.40;5.80;;;;;;;11.08;67.06;99501.51;78873;1293;3057235;-71
2023/11/08 08:09:42;;;;;;;18.50;6.20;;;;;;;11.14;67.04;99496.91;79811;1295;3013158;-71
2023/11/08 08:12:09;;;;;;;15.40;6.50;;;;;;;11.20;66.97;99493.21;79928;1298;3011923;-70
2023/11/08 08:14:37;;;;;;;15.50;6.30;;;;;;;11.28;66.63;99496.55;78587;1297;3026457;-73
2023/11/08 08:17:03;;;;;;;21.20;6.50;;;;;;;11.28;66.77;99491.46;79780;1296;3012589;-73
2023/11/08 08:19:31;;;;;;;18.90;7.00;;;;;;;11.40;66.83;99481.79;79794;1295;3011592;-72
2023/11/08 08:22:01;;;;;;;15.80;6.80;;;;;;;11.44;66.73;99476.42;78817;1293;3055877;-69
2023/11/08 08:24:28;;;;;;;17.30;7.20;;;;;;;11.49;66.25;99470.48;79799;1293;3013502;-70
2023/11/08 08:26:56;;;;;;;17.40;7.30;;;;;;;11.56;66.19;99468.83;79840;1293;3011835;-68
2023/11/08 08:29:26;;;;;;;22.10;8.50;;;;;;;11.55;66.50;99468.58;78366;1298;3050857;-68
2023/11/08 08:31:53;;;;;;;20.10;7.60;;;;;;;11.60;66.35;99461.55;79966;1298;3013895;-74
2023/11/08 08:34:19;;;;;;;19.00;7.10;;;;;;;11.71;66.52;99464.34;80072;1298;3012929;-72
2023/11/08 08:36:47;;;;;;;18.70;6.90;;;;;;;11.71;66.74;99451.20;78619;1293;3056319;-76
2023/11/08 08:39:15;;;;;;;19.10;7.50;;;;;;;11.73;66.50;99435.05;79872;1293;3019164;-70
2023/11/08 08:41:44;;;;;;;15.50;6.90;;;;;;;11.76;66.43;99420.85;79791;1298;3012936;-72
2023/11/08 08:44:12;;;;;;;15.10;7.10;;;;;;;11.83;66.48;99403.02;78667;1297;3051569;-71
2023/11/08 08:46:39;;;;;;;27.30;7.70;;;;;;;11.88;66.29;99387.44;79995;1297;3013038;-75
2023/11/08 08:49:06;;;;;;;20.70;8.00;;;;;;;11.97;65.52;99376.83;79997;1294;3011787;-76
2023/11/08 08:51:35;;;;;;;17.50;7.70;;;;;;;12.00;65.21;99379.83;78809;1295;3056943;-76
2023/11/08 08:54:01;;;;;;;20.10;7.00;;;;;;;12.12;65.05;99385.34;79862;1292;3013412;-70
2023/11/08 08:56:28;;;;;;;17.80;6.90;;;;;;;12.17;64.37;99393.23;79753;1296;3011541;-71
2023/11/08 08:58:56;;;;;;;18.80;6.20;;;;;;;12.31;63.55;99400.00;78781;1298;3027718;-72
2023/11/08 09:01:23;;;;;;;18.40;6.50;;;;;;;12.39;63.75;99396.48;79847;1295;3018852;-71
2023/11/08 09:03:49;;;;;;;19.70;6.20;;;;;;;12.39;63.53;99394.52;79943;1292;3013366;-70
2023/11/08 09:06:19;;;;;;;15.70;5.80;;;;;;;12.58;63.62;99386.19;78652;1296;3026673;-70
2023/11/08 09:08:46;;;;;;;21.50;6.70;;;;;;;12.60;63.37;99385.70;79921;1293;3014769;-74
2023/11/08 09:11:12;;;;;;;18.10;5.50;;;;;;;12.57;63.66;99375.35;79898;1298;3012090;-73
2023/11/08 09:13:40;;;;;;;13.00;4.60;;;;;;;12.56;63.39;99382.14;78709;1299;3052796;-74
2023/11/08 09:16:07;;;;;;;11.80;3.60;;;;;;;12.54;62.55;99377.16;80111;1298;3018455;-70
2023/11/08 09:18:34;;;;;;;10.90;3.40;;;;;;;12.60;62.19;99364.09;80018;1296;3011808;-70
2023/11/08 09:21:02;;;;;;;6.30;2.90;;;;;;;12.69;61.80;99346.96;78592;1293;3025864;-69
2023/11/08 09:23:30;;;;;;;7.10;2.70;;;;;;;12.76;61.23;99336.77;79925;1298;3013185;-71
2023/11/08 09:25:58;;;;;;;6.30;2.60;;;;;;;12.80;60.90;99334.73;79880;1295;3013637;-68
2023/11/08 09:28:26;;;;;;;4.10;2.20;;;;;;;12.89;59.90;99340.05;78764;1297;3053039;-69
2023/11/08 09:30:54;;;;;;;5.70;1.90;;;;;;;12.96;59.90;99340.45;79861;1298;3012939;-69
2023/11/08 09:33:21;;;;;;;6.00;1.90;;;;;;;13.03;59.12;99339.39;79977;1298;3011744;-70
2023/11/08 09:35:50;;;;;;;4.70;2.30;;;;;;;13.04;58.97;99327.52;78759;1293;3056543;-69
2023/11/08 09:38:16;;;;;;;3.60;1.90;;;;;;;13.14;58.36;99323.67;80242;1295;3013427;-70
2023/11/08 09:40:43;;;;;;;5.30;1.90;;;;;;;13.14;57.27;99327.37;79787;1293;3011874;-70
2023/11/08 09:43:10;;;;;;;3.30;1.90;;;;;;;13.14;56.41;99326.67;78872;1297;3051630;-70
2023/11/08 09:45:37;;;;;;;4.20;2.00;;;;;;;13.15;56.33;99324.64;79775;1296;3012777;-69
2023/11/08 09:48:05;;;;;;;5.70;2.10;;;;;;;13.15;55.98;99320.30;77103;1300;3404007;-68
2023/11/08 09:50:33;;;;;;;5.40;2.20;;;;;;;13.21;56.02;99313.64;78645;1292;3055091;-73
2023/11/08 09:53:00;;;;;;;4.40;2.00;;;;;;;13.18;56.41;99309.68;79897;1293;3013632;-69
2023/11/08 09:55:26;;;;;;;6.60;2.30;;;;;;;13.21;56.48;99309.77;79780;1298;3013418;-68
2023/11/08 09:57:54;;;;;;;6.70;1.90;;;;;;;13.15;56.90;99303.55;78643;1298;3026697;-69
2023/11/08 10:00:21;;;;;;;6.60;2.40;;;;;;;13.13;57.54;99297.04;79912;1292;3013987;-68
2023/11/08 10:02:49;;;;;;;11.60;3.10;;;;;;;13.13;57.38;99285.52;79578;1293;3011662;-69
2023/11/08 10:05:16;;;;;;;10.40;4.10;;;;;;;13.17;57.87;99275.42;78505;1292;3055917;-68
2023/11/08 10:07:43;;;;;;;8.50;3.30;;;;;;;13.28;57.33;99262.34;79682;1293;3021177;-67
2023/11/08 10:10:10;;;;;;;14.50;3.90;;;;;;;13.33;57.62;99249.98;79734;1298;3012668;-67
2023/11/08 10:12:38;;;;;;;10.80;4.40;;;;;;;13.38;57.61;99245.04;78567;1305;3025295;-67
2023/11/08 10:15:06;;;;;;;11.40;4.10;;;;;;;13.42;57.71;99240.55;79886;1298;3013073;-67
2023/11/08 10:17:42;;;;;;;10.40;3.60;;;;;;;13.48;57.92;99234.27;79959;1292;3012066;-67
2023/11/08 10:20:20;;;;;;;11.50;4.30;;;;;;;13.54;57.74;99240.13;78552;1298;3055845;-66
2023/11/08 10:22:47;;;;;;;11.10;4.30;;;;;;;13.60;57.84;99237.59;80134;1298;3012410;-67
2023/11/08 10:25:13;;;;;;;9.30;4.10;;;;;;;13.53;58.68;99233.18;79871;1298;3011665;-67
2023/11/08 10:27:41;;;;;;;9.10;4.30;;;;;;;13.62;58.72;99231.50;78260;1298;3027705;-71
2023/11/08 10:30:18;;;;;;;11.20;4.20;;;;;;;13.61;58.77;99227.15;79816;1298;3012951;-68
2023/11/08 10:32:47;;;;;;;11.00;3.40;;;;;;;13.55;59.22;99231.46;78617;1296;3051078;-70
2023/11/08 10:35:15;;;;;;;10.40;3.40;;;;;;;13.53;59.38;99227.20;80091;1293;3013168;-68
2023/11/08 10:37:42;;;;;;;8.40;3.30;;;;;;;13.55;59.69;99231.65;79780;1298;3011693;-67
2023/11/08 10:40:12;;;;;;;9.70;3.00;;;;;;;13.52;59.95;99225.34;78664;1298;3048955;-66
2023/11/08 10:42:40;;;;;;;7.30;3.20;;;;;;;13.56;60.13;99222.52;79845;1296;3011865;-66
2023/11/08 10:45:09;;;;;;;6.90;3.20;;;;;;;13.55;60.34;99224.45;79386;1298;3013513;-67
2023/11/08 10:47:37;;;;;;;9.80;2.60;;;;;;;13.51;60.66;99213.67;79928;1298;3014953;-66
2023/11/08 10:50:06;;;;;;;4.60;2.20;;;;;;;13.48;60.91;99213.02;79939;1297;3013835;-68
2023/11/08 10:52:34;;;;;;;6.60;2.30;;;;;;;13.56;61.13;99211.31;78812;1293;3050012;-68
2023/11/08 10:55:04;;;;;;;7.20;2.20;;;;;;;13.52;61.37;99209.14;80035;1295;3018766;-69
2023/11/08 10:57:33;;;;;;;6.20;2.00;;;;;;;13.58;61.44;99196.94;78719;1296;3052307;-69
2023/11/08 11:00:02;;;;;;;3.60;1.90;;;;;;;13.59;61.83;99186.64;79977;1298;3013092;-69
2023/11/08 11:02:41;;;;;;;4.30;1.40;;;;;;;13.66;61.92;99179.92;79399;1292;3011634;-69
2023/11/08 11:05:10;;;;;;;4.80;1.70;;;;;;;13.66;62.69;99184.17;78467;1296;3052444;-69
2023/11/08 11:07:40;;;;;;;4.00;1.70;;;;;;;13.61;63.06;99181.36;79768;1298;3013125;-69
2023/11/08 11:12:11;;;;;;;3.40;1.40;;;;;;;13.60;64.07;99175.95;80289;1300;3013077;-69
2023/11/08 11:14:47;;;;;;;4.70;2.20;;;;;;;13.60;64.77;99161.06;79260;1301;3013424;-70
2023/11/08 11:17:19;;;;;;;3.40;1.80;;;;;;;13.63;64.87;99157.48;77951;1304;3049991;-69
2023/11/08 11:19:46;;;;;;;6.10;2.20;;;;;;;13.58;65.53;99159.60;79235;1302;3013920;-69